This is the latest recevied weather packets stored in our database for station/object W3JGB. If no packets are shown the sender has not sent any weather packets the latest 10 day(s).
| Time | Temp. | Humidity | Pressure | Rain* | Wind** | Luminosity | Snow |
|---|---|---|---|---|---|---|---|
| 1777897510 | 12.78° C | 56% | 1012.1 hPa | 0 mm | - | 214 W/m² | - |
| 1777897206 | 12.22° C | 66% | 1011.9 hPa | 0 mm | - | 192 W/m² | - |
| 1777896902 | 10.56° C | 79% | 1011.8 hPa | 0 mm | - | 94 W/m² | - |
| 1777896600 | 10° C | 77% | 1012.1 hPa | 0 mm | - | 99 W/m² | - |
| 1777896296 | 9.44° C | 85% | 1011.9 hPa | 0 mm | - | 69 W/m² | - |
| 1777895995 | 9.44° C | 87% | 1012.1 hPa | 0 mm | - | 83 W/m² | - |
| 1777895692 | 8.89° C | 88% | 1012.1 hPa | 0 mm | - | 72 W/m² | - |
| 1777895087 | 7.78° C | 91% | 1012.1 hPa | 0 mm | - | 70 W/m² | - |
| 1777894784 | 7.78° C | 92% | 1012.3 hPa | 0 mm | - | 74 W/m² | - |
| 1777894480 | 6.11° C | 95% | 1012.4 hPa | 0 mm | - | 102 W/m² | - |
| 1777894178 | 5° C | 95% | 1012.3 hPa | 0 mm | - | 88 W/m² | - |
| 1777893875 | 3.89° C | 96% | 1012.3 hPa | 0 mm | - | 67 W/m² | - |
| 1777893571 | 3.89° C | 96% | 1012.2 hPa | 0 mm | - | 41 W/m² | - |
| 1777893268 | 3.33° C | 97% | 1012.5 hPa | 0 mm | - | 47 W/m² | - |
| 1777892964 | 3.33° C | 97% | 1012.2 hPa | 0 mm | - | 42 W/m² | - |
| 1777892661 | 2.78° C | 97% | 1012.2 hPa | 0 mm | - | 34 W/m² | - |
| 1777892357 | 2.78° C | 97% | 1012.4 hPa | 0 mm | - | 31 W/m² | - |
| 1777891751 | 1.67° C | 98% | 1012.3 hPa | 0 mm | - | 18 W/m² | - |
| 1777891447 | 1.67° C | 98% | 1012.3 hPa | 0 mm | - | 17 W/m² | - |
| 1777891143 | 1.67° C | 98% | 1012.2 hPa | 0 mm | - | 15 W/m² | - |
| 1777890838 | 1.67° C | 98% | 1012.1 hPa | 0 mm | - | 13 W/m² | - |
| 1777890534 | 1.11° C | 99% | 1012.3 hPa | 0 mm | - | 9 W/m² | - |
| 1777889926 | 1.11° C | 99% | 1012.3 hPa | 0 mm | - | 4 W/m² | - |
| 1777889624 | 0.56° C | 99% | 1012.5 hPa | 0 mm | - | 3 W/m² | - |
| 1777889321 | 0.56° C | 99% | 1012.3 hPa | 0 mm | - | 1 W/m² | - |
* Rain latest hour (hover to see other rain measurements)
** Current wind speed in m/s (hover to see current wind gust speed)